Time;durP1;ratioP1;P1;durP2;ratioP2;P2;SDS_P1;SDS_P2;PMS_P1;PMS_P2;Temp;Humidity;BMP_temperature;BMP_pressure;BME280_temperature;BME280_humidity;BME280_pressure;Samples;Min_cycle;Max_cycle;Signal;HPM_P1;HPM_P2
2022/01/08 00:00:30;;;;;;;12.93;9.25;;;;;;;6.85;33.04;99854.75;4463421;32;32243;-69
2022/01/08 00:02:58;;;;;;;19.08;11.68;;;;;;;6.84;32.76;99849.50;4464363;32;33638;-69
2022/01/08 00:05:26;;;;;;;14.07;9.88;;;;;;;6.84;32.67;99847.72;4463154;32;33385;-69
2022/01/08 00:07:54;;;;;;;14.77;10.35;;;;;;;6.80;33.32;99845.31;4467960;32;34909;-68
2022/01/08 00:10:22;;;;;;;16.35;8.95;;;;;;;6.87;33.36;99841.34;4465302;31;33544;-69
2022/01/08 00:12:51;;;;;;;12.73;8.25;;;;;;;6.53;34.90;99838.81;4461076;32;34971;-69
2022/01/08 00:15:18;;;;;;;14.32;9.93;;;;;;;5.37;37.37;99839.78;4464939;32;33793;-69
2022/01/08 00:17:46;;;;;;;13.88;9.93;;;;;;;6.23;35.28;99846.72;4462808;32;33632;-70
2022/01/08 00:20:14;;;;;;;14.13;8.90;;;;;;;6.35;36.06;99842.50;4464839;32;34262;-70
2022/01/08 00:22:42;;;;;;;19.05;10.48;;;;;;;6.25;36.38;99846.63;4466253;32;34681;-70
2022/01/08 00:25:10;;;;;;;20.48;14.10;;;;;;;5.91;37.41;99845.78;4471981;32;34147;-69
2022/01/08 00:27:38;;;;;;;17.12;11.15;;;;;;;6.38;36.07;99841.47;4464996;32;33763;-68
2022/01/08 00:30:06;;;;;;;16.60;11.25;;;;;;;6.46;35.79;99841.91;4466689;32;32117;-67
2022/01/08 00:32:34;;;;;;;16.70;8.43;;;;;;;6.05;36.86;99839.75;4466090;32;33536;-68
2022/01/08 00:35:02;;;;;;;16.12;9.77;;;;;;;6.28;36.36;99833.16;4464872;32;34258;-68
2022/01/08 00:37:30;;;;;;;17.20;9.73;;;;;;;6.60;34.41;99828.69;4458897;32;33726;-69
2022/01/08 00:39:57;;;;;;;17.80;13.02;;;;;;;6.77;33.34;99819.72;4465425;32;33469;-70
2022/01/08 00:42:25;;;;;;;17.37;10.90;;;;;;;6.70;33.17;99821.03;4471687;32;33603;-70
2022/01/08 00:44:53;;;;;;;15.57;9.57;;;;;;;6.58;34.62;99819.06;4468099;32;34141;-69
2022/01/08 00:47:20;;;;;;;16.58;7.85;;;;;;;6.71;32.93;99813.00;4466792;32;34921;-68
2022/01/08 00:49:48;;;;;;;18.73;12.15;;;;;;;6.57;33.57;99812.91;4468571;32;32975;-69
2022/01/08 00:52:16;;;;;;;18.65;13.00;;;;;;;6.74;32.87;99799.50;4466602;32;33870;-68
2022/01/08 00:54:43;;;;;;;10.90;7.20;;;;;;;6.21;34.01;99800.75;4466763;32;35316;-68
2022/01/08 00:57:11;;;;;;;18.08;10.68;;;;;;;6.40;33.90;99799.72;4468529;32;35176;-69
2022/01/08 00:59:38;;;;;;;15.65;8.32;;;;;;;6.34;34.71;99792.09;4467586;32;33806;-73
2022/01/08 01:02:06;;;;;;;19.52;13.48;;;;;;;6.54;33.83;99799.78;4468423;32;34264;-70
2022/01/08 01:04:34;;;;;;;21.50;14.32;;;;;;;6.36;35.38;99792.88;4460558;32;34826;-69
2022/01/08 01:07:02;;;;;;;19.05;11.23;;;;;;;6.13;35.75;99797.69;4468276;32;34440;-71
2022/01/08 01:09:30;;;;;;;21.33;11.23;;;;;;;6.06;36.16;99788.31;4462354;32;34375;-70
2022/01/08 01:11:58;;;;;;;21.05;14.60;;;;;;;6.30;35.44;99783.44;4466706;32;34039;-71
2022/01/08 01:14:26;;;;;;;17.12;11.70;;;;;;;6.54;34.68;99765.22;4468250;32;33995;-71
2022/01/08 01:16:53;;;;;;;14.90;7.15;;;;;;;6.25;36.04;99766.88;4472399;32;33932;-71
2022/01/08 01:19:21;;;;;;;18.52;10.93;;;;;;;6.36;35.55;99766.28;4468976;32;33398;-70
2022/01/08 01:21:49;;;;;;;15.13;9.77;;;;;;;6.54;33.94;99770.53;4465597;32;34075;-71
2022/01/08 01:24:21;;;;;;;15.13;7.32;;;;;;;6.00;36.41;99775.34;4469795;32;32881;-71
2022/01/08 01:48:26;;;;;;;10.30;5.65;;;;;;;6.33;34.38;99743.38;4467162;32;36616;-73
2022/01/08 01:50:54;;;;;;;12.75;6.82;;;;;;;6.30;34.32;99736.44;4468069;32;33491;-73
2022/01/08 01:53:22;;;;;;;13.18;7.62;;;;;;;6.30;34.27;99741.75;4467601;32;34627;-71
2022/01/08 01:55:50;;;;;;;12.50;6.93;;;;;;;6.10;34.79;99731.41;4466289;32;33986;-71
2022/01/08 01:58:18;;;;;;;16.60;10.77;;;;;;;6.00;35.58;99725.75;4468875;32;33772;-72
2022/01/08 02:00:48;;;;;;;17.10;12.63;;;;;;;5.97;35.02;99733.91;4467996;32;33031;-72
2022/01/08 02:03:16;;;;;;;16.50;9.55;;;;;;;5.91;35.87;99725.38;4467405;32;34775;-71
2022/01/08 02:05:46;;;;;;;15.43;10.55;;;;;;;5.87;36.22;99735.31;4468334;32;34092;-72
2022/01/08 02:08:14;;;;;;;17.05;9.63;;;;;;;5.59;36.44;99734.19;4468643;32;34354;-72
2022/01/08 02:10:42;;;;;;;11.60;8.30;;;;;;;5.99;35.29;99725.84;4465817;32;32199;-71
2022/01/08 02:13:09;;;;;;;9.68;6.80;;;;;;;5.65;36.39;99726.81;4470341;32;34719;-70
2022/01/08 02:15:37;;;;;;;21.27;9.95;;;;;;;5.57;36.83;99720.13;4466982;32;33782;-71
2022/01/08 02:18:06;;;;;;;15.98;11.40;;;;;;;5.52;37.09;99724.84;4461297;32;32365;-72
2022/01/08 02:20:33;;;;;;;19.52;12.18;;;;;;;5.67;36.84;99720.47;4465226;32;31829;-71
2022/01/08 02:23:01;;;;;;;14.77;8.65;;;;;;;5.88;36.13;99715.78;4468711;32;33412;-70
2022/01/08 02:25:29;;;;;;;9.68;5.32;;;;;;;5.66;36.72;99712.59;4464166;32;35295;-68
2022/01/08 02:27:56;;;;;;;21.48;13.00;;;;;;;5.79;35.36;99714.50;4465191;32;33653;-67
2022/01/08 02:30:24;;;;;;;12.57;6.68;;;;;;;5.84;34.00;99712.44;4460521;32;33034;-70
2022/01/08 02:32:52;;;;;;;12.70;6.18;;;;;;;5.74;33.61;99715.69;4467825;32;33833;-67
2022/01/08 02:35:22;;;;;;;14.77;7.18;;;;;;;5.61;34.37;99705.72;4467861;32;33827;-68
2022/01/08 02:37:50;;;;;;;15.40;9.23;;;;;;;4.93;36.91;99710.28;4467727;32;33834;-68
2022/01/08 02:40:22;;;;;;;18.98;8.00;;;;;;;5.42;34.60;99709.47;4462921;32;34330;-68
2022/01/08 02:42:52;;;;;;;13.30;5.97;;;;;;;5.38;34.19;99703.47;4463839;32;33170;-67
2022/01/08 02:45:21;;;;;;;23.08;4.87;;;;;;;5.17;34.16;99699.31;4466109;32;35248;-67
2022/01/08 02:47:49;;;;;;;10.48;5.40;;;;;;;5.02;34.75;99707.16;4463523;32;34906;-68
2022/01/08 02:50:17;;;;;;;16.77;7.15;;;;;;;4.68;36.86;99711.53;4468421;32;32120;-68
2022/01/08 02:52:46;;;;;;;11.73;6.82;;;;;;;4.99;36.07;99711.78;4464682;32;34462;-69
2022/01/08 02:55:15;;;;;;;18.05;6.90;;;;;;;5.21;34.61;99696.44;4461657;32;33820;-69
2022/01/08 02:57:43;;;;;;;16.50;6.80;;;;;;;5.36;34.31;99685.00;4464928;32;33929;-69
2022/01/08 03:00:14;;;;;;;17.65;9.20;;;;;;;5.41;34.92;99691.84;4467794;32;33418;-67
2022/01/08 03:02:47;;;;;;;14.77;8.70;;;;;;;5.22;35.89;99698.13;4466272;32;33952;-69
2022/01/08 03:05:16;;;;;;;20.25;13.68;;;;;;;5.35;35.94;99693.03;4467030;32;35017;-67
2022/01/08 03:07:45;;;;;;;12.23;8.20;;;;;;;5.53;34.52;99694.69;4467440;32;32429;-66
2022/01/08 03:10:15;;;;;;;13.75;6.85;;;;;;;5.25;35.73;99697.97;4468336;32;33544;-68
2022/01/08 03:12:44;;;;;;;9.75;5.28;;;;;;;5.92;33.35;99695.22;4467500;32;35017;-69
2022/01/08 03:15:14;;;;;;;17.75;10.38;;;;;;;5.58;34.35;99695.28;4468744;32;33163;-70
2022/01/08 03:17:42;;;;;;;16.95;11.00;;;;;;;5.82;34.13;99694.88;4467540;32;33808;-68
2022/01/08 03:20:13;;;;;;;11.98;7.10;;;;;;;6.11;33.81;99703.03;4461876;32;33475;-67
2022/01/08 03:22:45;;;;;;;16.40;11.27;;;;;;;6.11;33.75;99698.56;4459236;32;33574;-70
2022/01/08 03:25:14;;;;;;;17.60;11.65;;;;;;;6.52;33.39;99703.31;4459580;32;35511;-69
2022/01/08 03:27:41;;;;;;;12.98;5.70;;;;;;;6.25;33.73;99700.44;4462427;32;33737;-70
2022/01/08 03:30:11;;;;;;;18.65;11.75;;;;;;;6.54;33.04;99696.06;4462177;32;32327;-69
2022/01/08 03:32:39;;;;;;;18.55;12.88;;;;;;;6.83;30.53;99696.16;4462250;32;33693;-71
2022/01/08 03:35:07;;;;;;;20.60;13.18;;;;;;;6.28;31.88;99698.44;4462452;32;33884;-70
2022/01/08 03:37:35;;;;;;;13.62;8.60;;;;;;;6.05;32.05;99704.22;4461831;32;33885;-67
2022/01/08 03:40:05;;;;;;;18.42;10.25;;;;;;;6.41;31.44;99705.72;4461022;32;34186;-67
2022/01/08 03:42:33;;;;;;;16.70;9.75;;;;;;;6.52;31.33;99703.31;4458156;32;34326;-67
2022/01/08 03:45:00;;;;;;;17.60;12.20;;;;;;;6.57;30.90;99713.66;4462976;32;34875;-67
2022/01/08 03:49:57;;;;;;;19.87;12.23;;;;;;;5.92;31.87;99717.31;4460664;32;33504;-65
2022/01/08 03:52:25;;;;;;;14.30;8.93;;;;;;;5.71;32.17;99718.50;4462444;32;33791;-67
2022/01/08 03:54:53;;;;;;;17.80;12.55;;;;;;;6.23;31.28;99716.47;4461500;32;34850;-70
2022/01/08 03:57:21;;;;;;;11.23;7.05;;;;;;;6.44;30.90;99713.50;4458855;32;34897;-70
2022/01/08 03:59:49;;;;;;;14.70;11.12;;;;;;;6.58;30.17;99710.94;4462085;32;33302;-67
2022/01/08 04:02:16;;;;;;;21.12;12.32;;;;;;;6.32;31.12;99712.41;4460725;32;33849;-66
2022/01/08 04:04:44;;;;;;;18.15;9.05;;;;;;;6.23;31.00;99705.84;4463290;32;33727;-66
2022/01/08 04:07:12;;;;;;;18.42;11.57;;;;;;;6.01;31.44;99708.88;4463965;32;32687;-70
2022/01/08 04:09:40;;;;;;;15.13;10.90;;;;;;;6.05;31.25;99702.44;4462503;32;33055;-67
2022/01/08 04:12:08;;;;;;;12.27;6.97;;;;;;;6.44;30.18;99692.25;4462793;32;33826;-70
2022/01/08 04:14:50;;;;;;;14.82;10.70;;;;;;;6.47;30.30;99692.91;4460994;32;33697;-71
2022/01/08 04:17:18;;;;;;;12.37;7.25;;;;;;;6.65;30.60;99690.13;4461737;32;33780;-71
2022/01/08 04:19:46;;;;;;;17.10;10.70;;;;;;;6.62;31.24;99687.66;4462159;32;33899;-71
2022/01/08 04:22:14;;;;;;;17.40;10.27;;;;;;;6.64;31.68;99675.09;4462293;32;34541;-71
2022/01/08 04:24:42;;;;;;;15.25;10.45;;;;;;;6.62;32.08;99677.03;4458905;32;33880;-71
2022/01/08 04:27:10;;;;;;;10.90;6.47;;;;;;;6.76;31.42;99669.91;4460587;32;33723;-70
2022/01/08 04:29:38;;;;;;;12.98;8.98;;;;;;;6.94;29.74;99667.09;4462874;32;33387;-73
2022/01/08 04:32:06;;;;;;;14.98;10.23;;;;;;;7.11;29.29;99671.38;4461851;32;33788;-72
2022/01/08 04:34:34;;;;;;;16.42;11.10;;;;;;;7.15;29.54;99662.25;4463627;32;34082;-70
2022/01/08 04:37:03;;;;;;;17.62;10.73;;;;;;;6.88;31.32;99657.69;4461910;32;34467;-70
2022/01/08 04:39:30;;;;;;;10.35;5.28;;;;;;;7.35;29.75;99655.66;4457366;32;33391;-70
2022/01/08 04:41:58;;;;;;;14.52;6.62;;;;;;;7.56;28.84;99645.47;4460826;32;34036;-72
2022/01/08 04:44:25;;;;;;;12.65;8.98;;;;;;;7.03;31.08;99652.34;4461297;32;33035;-70
2022/01/08 04:46:53;;;;;;;13.43;8.88;;;;;;;7.04;31.59;99643.44;4461984;32;33620;-68
2022/01/08 04:49:21;;;;;;;15.85;9.82;;;;;;;7.54;30.73;99642.91;4463929;32;33315;-71
2022/01/08 04:51:48;;;;;;;14.70;9.68;;;;;;;7.80;28.65;99643.91;4464246;32;35285;-70
2022/01/08 04:54:16;;;;;;;14.50;9.77;;;;;;;7.25;30.85;99644.75;4464222;32;35030;-70
2022/01/08 04:56:43;;;;;;;12.73;8.30;;;;;;;7.47;30.21;99649.59;4465961;32;33405;-70
2022/01/08 04:59:11;;;;;;;16.87;9.93;;;;;;;7.84;29.19;99641.91;4464465;32;33260;-69
2022/01/08 05:01:39;;;;;;;13.73;7.10;;;;;;;7.94;28.25;99635.00;4465601;32;34672;-70
2022/01/08 05:04:06;;;;;;;13.57;8.45;;;;;;;8.03;28.41;99634.41;4464245;32;33828;-68
2022/01/08 05:06:34;;;;;;;12.23;8.13;;;;;;;7.93;29.71;99630.66;4463695;32;34362;-66
2022/01/08 05:09:03;;;;;;;13.57;9.02;;;;;;;7.77;30.01;99632.56;4464874;32;33421;-66
2022/01/08 05:11:31;;;;;;;11.80;8.13;;;;;;;7.18;30.68;99630.97;4466509;32;35021;-63
2022/01/08 05:13:59;;;;;;;13.50;8.65;;;;;;;7.78;29.54;99629.81;4464565;32;34073;-68
2022/01/08 05:16:28;;;;;;;13.48;8.15;;;;;;;7.79;30.31;99638.66;4465670;32;33608;-69
2022/01/08 05:18:56;;;;;;;11.15;8.15;;;;;;;7.61;30.80;99651.37;4462894;32;33061;-64
2022/01/08 05:21:26;;;;;;;12.98;8.45;;;;;;;7.96;29.23;99634.91;4463928;32;33834;-66
2022/01/08 05:23:56;;;;;;;11.23;8.00;;;;;;;8.11;29.14;99637.41;4464312;32;32965;-66
2022/01/08 05:26:25;;;;;;;13.43;8.45;;;;;;;7.68;30.08;99645.56;4464570;32;33899;-65
2022/01/08 05:28:53;;;;;;;11.55;7.90;;;;;;;7.49;29.89;99646.84;4462904;32;32305;-64
2022/01/08 05:31:23;;;;;;;10.90;7.47;;;;;;;7.81;30.36;99647.44;4463643;32;34825;-66
2022/01/08 05:33:51;;;;;;;11.27;7.05;;;;;;;8.05;28.10;99643.13;4464223;32;33981;-67
2022/01/08 05:36:19;;;;;;;15.77;8.70;;;;;;;8.12;28.22;99636.47;4464765;32;34013;-66
2022/01/08 05:38:46;;;;;;;11.00;7.75;;;;;;;8.10;28.04;99643.72;4465605;32;31841;-67
2022/01/08 05:41:14;;;;;;;10.45;7.03;;;;;;;7.67;30.13;99643.84;4465754;32;34952;-66
2022/01/08 05:43:42;;;;;;;12.98;7.85;;;;;;;7.40;30.76;99642.94;4466184;32;33834;-66
2022/01/08 05:46:09;;;;;;;10.30;7.50;;;;;;;7.75;30.11;99642.50;4464090;32;32796;-65
2022/01/08 05:48:38;;;;;;;14.15;8.60;;;;;;;7.74;30.00;99635.44;4465497;32;33102;-65
2022/01/08 05:51:05;;;;;;;11.63;8.40;;;;;;;7.76;29.75;99637.06;4464936;32;33897;-65
2022/01/08 05:53:33;;;;;;;10.95;8.60;;;;;;;7.24;31.17;99635.91;4464253;32;35261;-67
2022/01/08 05:56:00;;;;;;;11.23;8.32;;;;;;;7.22;31.01;99642.28;4464087;32;32133;-65
2022/01/08 05:58:28;;;;;;;12.25;7.70;;;;;;;7.39;30.66;99646.56;4460367;32;33325;-65
2022/01/08 06:00:56;;;;;;;12.25;8.05;;;;;;;7.52;30.39;99652.81;4465124;32;33724;-67
2022/01/08 06:03:23;;;;;;;11.38;7.95;;;;;;;7.59;30.50;99661.28;4461748;32;33759;-64
2022/01/08 06:05:51;;;;;;;13.68;7.60;;;;;;;7.36;30.58;99654.75;4463574;32;33833;-68
2022/01/08 06:08:19;;;;;;;13.70;8.55;;;;;;;7.08;31.04;99661.78;4463343;32;33374;-64
2022/01/08 06:10:46;;;;;;;11.80;7.78;;;;;;;7.18;30.68;99670.03;4465267;32;32529;-67
2022/01/08 06:13:14;;;;;;;12.60;8.30;;;;;;;7.63;29.44;99676.09;4465472;32;34053;-67
2022/01/08 06:15:41;;;;;;;14.43;8.30;;;;;;;6.73;31.97;99679.88;4461631;32;34601;-64
2022/01/08 06:18:09;;;;;;;12.90;7.65;;;;;;;6.54;32.12;99691.59;4463899;32;33373;-67
2022/01/08 06:20:37;;;;;;;13.40;7.62;;;;;;;6.91;31.47;99693.91;4464002;32;33931;-64
2022/01/08 06:23:04;;;;;;;12.65;7.97;;;;;;;6.68;31.73;99693.47;4464948;32;32678;-65
2022/01/08 06:25:32;;;;;;;12.63;8.32;;;;;;;7.18;30.78;99689.53;4463869;32;34107;-64
2022/01/08 06:28:00;;;;;;;14.73;9.20;;;;;;;7.36;30.50;99686.69;4463519;32;34369;-68
2022/01/08 06:30:27;;;;;;;12.63;7.78;;;;;;;6.82;31.17;99684.66;4463123;32;33944;-67
2022/01/08 06:32:55;;;;;;;12.20;8.27;;;;;;;7.19;30.81;99688.59;4464732;32;35624;-66
2022/01/08 06:35:23;;;;;;;13.13;8.10;;;;;;;7.55;28.97;99683.72;4462463;32;35289;-68
2022/01/08 06:37:50;;;;;;;10.65;7.55;;;;;;;7.51;28.81;99674.22;4463556;32;33086;-67
2022/01/08 06:40:18;;;;;;;7.15;4.47;;;;;;;7.45;29.34;99676.31;4464828;32;34756;-67
2022/01/08 06:42:45;;;;;;;8.27;5.68;;;;;;;7.05;31.67;99675.28;4464817;32;33913;-67
2022/01/08 06:45:13;;;;;;;12.77;8.18;;;;;;;7.34;30.60;99680.59;4465160;32;34627;-67
2022/01/08 06:47:45;;;;;;;15.35;8.48;;;;;;;7.59;28.85;99678.09;4464781;32;34086;-66
2022/01/08 06:50:12;;;;;;;10.48;5.10;;;;;;;7.57;28.67;99672.00;4464980;32;34720;-68
2022/01/08 06:52:40;;;;;;;14.50;8.15;;;;;;;7.56;28.40;99674.78;4462472;32;34818;-67
2022/01/08 06:55:08;;;;;;;13.27;7.97;;;;;;;7.00;30.99;99667.59;4464369;32;34730;-67
2022/01/08 06:57:36;;;;;;;12.02;7.95;;;;;;;7.31;29.62;99664.81;4463942;32;33370;-66
2022/01/08 07:00:05;;;;;;;11.35;7.50;;;;;;;7.26;30.57;99672.25;4461116;32;33909;-67
2022/01/08 07:02:32;;;;;;;13.18;8.05;;;;;;;7.42;29.96;99665.00;4460747;32;33821;-68
2022/01/08 07:05:00;;;;;;;13.27;8.15;;;;;;;7.63;30.01;99665.44;4463448;32;33743;-67
2022/01/08 07:07:28;;;;;;;18.70;12.20;;;;;;;7.70;29.62;99662.31;4464829;32;32288;-66
2022/01/08 07:09:55;;;;;;;29.30;18.87;;;;;;;7.41;29.22;99658.81;4463625;32;35463;-67
2022/01/08 07:12:23;;;;;;;19.67;13.13;;;;;;;7.69;28.96;99665.91;4462610;32;34569;-68
2022/01/08 07:14:50;;;;;;;24.40;15.77;;;;;;;7.61;30.12;99648.72;4462013;32;33887;-67
2022/01/08 07:17:18;;;;;;;16.52;11.57;;;;;;;7.45;30.73;99646.19;4466494;32;34466;-67
2022/01/08 07:19:46;;;;;;;16.10;10.45;;;;;;;7.83;29.09;99638.38;4466927;32;32691;-68
2022/01/08 07:22:13;;;;;;;13.27;9.75;;;;;;;8.15;27.65;99646.94;4462611;32;34164;-66
2022/01/08 07:24:41;;;;;;;16.60;10.85;;;;;;;9.19;26.62;99641.63;4465487;32;34647;-67
2022/01/08 07:27:09;;;;;;;17.20;9.07;;;;;;;9.46;26.77;99637.94;4466275;32;33439;-68
2022/01/08 07:29:37;;;;;;;12.70;8.98;;;;;;;9.29;27.23;99637.34;4466860;32;33688;-66
2022/01/08 07:32:05;;;;;;;15.85;9.00;;;;;;;9.24;28.37;99635.94;4463497;32;35107;-67
2022/01/08 07:34:33;;;;;;;13.85;8.40;;;;;;;9.64;27.23;99644.66;4462643;32;33705;-67
2022/01/08 07:37:01;;;;;;;16.40;8.45;;;;;;;10.13;25.81;99638.34;4466164;32;33133;-69
2022/01/08 07:39:28;;;;;;;13.00;7.97;;;;;;;9.88;26.54;99641.13;4467380;32;33655;-67
2022/01/08 07:41:56;;;;;;;12.98;8.20;;;;;;;9.59;26.36;99648.59;4463844;32;34328;-66
2022/01/08 07:44:23;;;;;;;12.40;7.90;;;;;;;9.35;27.96;99640.56;4467639;32;34648;-66
2022/01/08 07:46:51;;;;;;;10.68;7.82;;;;;;;10.24;26.01;99653.59;4467426;32;34462;-67
2022/01/08 07:49:18;;;;;;;14.68;9.15;;;;;;;10.58;25.05;99643.91;4466174;32;33817;-66
2022/01/08 07:51:47;;;;;;;25.70;15.23;;;;;;;10.39;25.35;99638.25;4464368;32;33813;-66
2022/01/08 07:54:15;;;;;;;27.92;17.15;;;;;;;10.40;25.44;99626.56;4465158;32;33434;-67
2022/01/08 07:56:42;;;;;;;28.90;19.35;;;;;;;10.67;26.03;99616.44;4465196;32;34501;-66
2022/01/08 07:59:10;;;;;;;20.98;12.45;;;;;;;10.90;25.46;99617.31;4465991;32;33531;-66
2022/01/08 08:01:38;;;;;;;20.02;13.77;;;;;;;11.69;24.41;99617.31;4464385;32;34878;-68
2022/01/08 08:04:06;;;;;;;18.67;11.35;;;;;;;12.45;23.69;99617.31;4465920;32;32838;-66
2022/01/08 08:06:36;;;;;;;12.70;8.52;;;;;;;13.22;22.78;99609.72;4463961;32;33415;-67
2022/01/08 08:09:04;;;;;;;12.32;8.65;;;;;;;13.94;21.27;99613.22;4465267;32;33710;-69
2022/01/08 08:11:32;;;;;;;10.90;7.82;;;;;;;14.06;21.10;99612.13;4465584;32;35091;-67
2022/01/08 08:13:59;;;;;;;11.57;7.43;;;;;;;13.86;21.34;99607.69;4464944;32;34816;-67
2022/01/08 08:16:27;;;;;;;13.10;8.00;;;;;;;13.92;21.50;99609.81;4468166;32;33405;-68
2022/01/08 08:18:55;;;;;;;11.50;7.78;;;;;;;14.00;21.81;99601.91;4465436;32;33732;-66
2022/01/08 08:21:23;;;;;;;12.45;7.97;;;;;;;14.10;22.14;99585.78;4467731;32;35203;-67
2022/01/08 08:23:50;;;;;;;17.35;7.90;;;;;;;14.57;21.40;99584.03;4467658;32;33838;-68
2022/01/08 08:26:18;;;;;;;10.90;7.55;;;;;;;15.50;20.01;99584.16;4467148;32;33264;-68
2022/01/08 08:28:46;;;;;;;11.77;8.00;;;;;;;15.02;20.93;99585.22;4466515;32;35000;-69
2022/01/08 08:31:13;;;;;;;11.38;7.10;;;;;;;15.12;20.69;99581.50;4464432;32;35117;-69
2022/01/08 08:33:41;;;;;;;13.48;7.75;;;;;;;14.58;21.22;99582.22;4467330;32;33739;-67
2022/01/08 08:36:09;;;;;;;12.70;8.48;;;;;;;13.82;22.22;99588.28;4466947;32;34588;-69
2022/01/08 08:38:36;;;;;;;12.40;8.05;;;;;;;13.19;23.13;99568.81;4467962;32;33769;-67
2022/01/08 08:41:04;;;;;;;12.07;7.93;;;;;;;13.02;23.10;99564.94;4467545;32;33953;-66
2022/01/08 08:43:32;;;;;;;13.00;8.07;;;;;;;12.91;23.23;99568.56;4468100;32;34083;-67
2022/01/08 08:45:59;;;;;;;13.62;8.63;;;;;;;12.61;23.46;99573.91;4468565;32;32011;-68
2022/01/08 08:48:27;;;;;;;12.82;7.93;;;;;;;12.50;23.55;99575.69;4467438;32;34768;-66
2022/01/08 08:50:55;;;;;;;14.23;8.50;;;;;;;12.30;23.91;99580.06;4467065;32;34430;-67
2022/01/08 08:53:22;;;;;;;16.98;11.38;;;;;;;11.75;25.33;99586.44;4465810;32;34094;-66
2022/01/08 08:55:50;;;;;;;51.63;28.67;;;;;;;11.73;25.52;99583.06;4466746;32;34898;-67
2022/01/08 08:58:18;;;;;;;83.30;49.22;;;;;;;11.82;25.26;99595.72;4467742;32;33919;-67
2022/01/08 09:00:45;;;;;;;53.30;34.85;;;;;;;11.71;25.03;99598.41;4467188;32;33998;-66
2022/01/08 09:03:13;;;;;;;31.12;20.25;;;;;;;11.62;25.20;99600.88;4466227;32;33597;-67
2022/01/08 09:05:41;;;;;;;27.60;19.30;;;;;;;11.33;26.63;99586.28;4467361;32;33581;-68
2022/01/08 09:08:09;;;;;;;18.92;12.02;;;;;;;11.36;26.61;99576.19;4467056;32;34322;-66
2022/01/08 09:10:36;;;;;;;18.40;11.73;;;;;;;10.96;27.87;99570.47;4473359;32;33802;-69
2022/01/08 09:13:04;;;;;;;18.62;11.68;;;;;;;10.96;27.80;99568.66;4465308;32;33280;-69
2022/01/08 09:15:33;;;;;;;17.83;11.00;;;;;;;11.17;27.60;99567.91;4461437;32;34190;-68
2022/01/08 09:18:01;;;;;;;13.50;9.68;;;;;;;11.01;27.65;99567.41;4463919;32;34672;-67
2022/01/08 09:20:29;;;;;;;17.67;10.23;;;;;;;11.23;27.28;99572.75;4468144;32;33915;-67
2022/01/08 09:22:57;;;;;;;14.87;10.05;;;;;;;11.33;26.79;99568.41;4467416;32;32383;-69
2022/01/08 09:25:25;;;;;;;15.35;9.13;;;;;;;11.68;26.19;99564.66;4466367;32;34706;-67
2022/01/08 09:27:52;;;;;;;14.60;9.15;;;;;;;11.87;26.34;99570.22;4466594;32;34573;-67
2022/01/08 09:30:21;;;;;;;18.00;10.82;;;;;;;12.09;25.83;99561.25;4466440;32;35281;-67
2022/01/08 09:32:49;;;;;;;14.18;10.15;;;;;;;12.89;24.54;99557.09;4467052;32;33662;-69
2022/01/08 09:35:17;;;;;;;14.75;10.70;;;;;;;12.65;25.44;99553.84;4465841;32;33464;-68
2022/01/08 09:37:44;;;;;;;14.95;10.57;;;;;;;12.39;25.53;99556.09;4467373;32;35002;-68
2022/01/08 09:40:15;;;;;;;13.70;9.93;;;;;;;12.76;24.85;99553.78;4467083;32;34055;-67
2022/01/08 09:42:43;;;;;;;15.57;9.95;;;;;;;12.78;24.71;99544.63;4467972;32;32949;-66
2022/01/08 09:45:12;;;;;;;15.73;10.60;;;;;;;12.42;25.68;99542.41;4465751;32;32147;-67
2022/01/08 09:47:40;;;;;;;20.05;11.43;;;;;;;12.43;25.68;99536.94;4465566;32;35063;-66
2022/01/08 09:50:08;;;;;;;17.00;11.70;;;;;;;12.66;25.26;99528.72;4467111;32;35468;-67
2022/01/08 09:52:36;;;;;;;20.05;13.10;;;;;;;12.45;25.74;99534.09;4465806;32;34746;-68
2022/01/08 09:55:05;;;;;;;17.67;12.25;;;;;;;12.65;25.03;99538.63;4466789;32;33481;-67
2022/01/08 09:57:33;;;;;;;18.75;13.35;;;;;;;12.57;25.53;99541.94;4465430;32;32697;-67
2022/01/08 10:00:00;;;;;;;17.95;13.48;;;;;;;12.51;25.56;99534.41;4466938;32;33747;-67
2022/01/08 10:02:29;;;;;;;20.67;14.10;;;;;;;12.48;25.15;99541.88;4466494;32;33934;-67
2022/01/08 10:05:08;;;;;;;18.65;13.05;;;;;;;12.25;25.22;99533.97;4468192;32;33279;-67
2022/01/08 10:07:35;;;;;;;23.23;13.68;;;;;;;12.51;25.30;99529.06;4464364;32;34689;-67
2022/01/08 10:10:12;;;;;;;17.25;12.43;;;;;;;12.98;24.29;99524.06;4467685;32;35055;-67
2022/01/08 10:12:55;;;;;;;19.25;14.40;;;;;;;13.13;24.82;99527.25;4462884;32;33546;-67
2022/01/08 10:18:30;;;;;;;19.23;13.02;;;;;;;13.42;24.55;99518.44;4466617;32;34083;-67
2022/01/08 10:20:58;;;;;;;19.70;14.40;;;;;;;13.46;24.67;99506.41;4466456;32;33841;-67
2022/01/08 10:23:33;;;;;;;19.42;12.75;;;;;;;12.78;26.21;99501.66;4464616;32;33283;-67
2022/01/08 10:26:05;;;;;;;18.25;13.25;;;;;;;13.16;25.48;99505.47;4467618;32;34192;-67
2022/01/08 10:28:45;;;;;;;20.83;13.00;;;;;;;13.27;25.07;99494.62;4466441;32;32667;-68
2022/01/08 10:31:15;;;;;;;19.33;13.43;;;;;;;12.88;25.80;99501.69;4465664;32;34006;-67
2022/01/08 10:34:08;;;;;;;21.02;12.50;;;;;;;12.60;26.49;99508.63;4464522;32;33658;-66
2022/01/08 10:36:38;;;;;;;18.45;12.90;;;;;;;12.89;25.56;99513.28;4465820;32;34334;-68
2022/01/08 10:39:23;;;;;;;15.98;11.85;;;;;;;12.09;27.42;99518.31;4465737;32;34848;-67
2022/01/08 10:41:53;;;;;;;23.67;12.37;;;;;;;12.53;26.37;99507.47;4465548;32;34926;-67
2022/01/08 10:44:23;;;;;;;20.67;12.43;;;;;;;12.65;25.57;99503.72;4467486;32;33792;-67
2022/01/08 10:46:57;;;;;;;16.75;11.80;;;;;;;12.43;26.27;99511.94;4468085;32;32808;-67
2022/01/08 10:49:42;;;;;;;17.42;12.95;;;;;;;12.27;26.70;99510.56;4463717;32;34164;-68
2022/01/08 10:52:16;;;;;;;16.30;12.80;;;;;;;12.27;26.36;99513.25;4463450;32;34056;-67
2022/01/08 10:54:47;;;;;;;20.88;12.13;;;;;;;12.53;26.20;99516.34;4466899;32;33643;-68
2022/01/08 10:57:15;;;;;;;18.95;13.70;;;;;;;12.66;25.95;99505.41;4464255;32;33272;-67
2022/01/08 10:59:43;;;;;;;19.98;12.45;;;;;;;12.51;26.40;99507.56;4465934;32;32800;-68
2022/01/08 11:02:15;;;;;;;18.17;12.18;;;;;;;12.58;26.28;99506.09;4466640;32;34937;-67
2022/01/08 11:04:45;;;;;;;30.33;19.90;;;;;;;12.72;25.98;99512.94;4466500;32;32326;-68
2022/01/08 11:07:20;;;;;;;19.98;14.63;;;;;;;12.77;25.21;99508.00;4466098;32;32691;-68
2022/01/08 11:09:53;;;;;;;18.15;11.93;;;;;;;12.81;25.55;99505.91;4466600;32;34438;-66
2022/01/08 11:12:26;;;;;;;17.33;12.07;;;;;;;12.69;25.43;99504.28;4466813;32;34130;-66
2022/01/08 11:15:12;;;;;;;16.77;11.93;;;;;;;12.56;25.43;99501.81;4463963;32;34741;-66
2022/01/08 11:17:42;;;;;;;18.20;12.77;;;;;;;12.59;25.29;99496.19;4463991;32;33597;-66
2022/01/08 11:20:14;;;;;;;19.77;12.80;;;;;;;12.64;25.50;99493.94;4466910;32;35076;-67
2022/01/08 11:22:47;;;;;;;18.17;12.45;;;;;;;11.72;27.10;99499.09;4464857;32;34083;-66
2022/01/08 11:25:21;;;;;;;17.40;12.77;;;;;;;12.11;26.63;99488.69;4466989;32;33532;-67
2022/01/08 11:28:00;;;;;;;17.80;11.85;;;;;;;12.44;26.09;99495.69;4462159;32;33290;-67
2022/01/08 11:30:31;;;;;;;16.80;12.15;;;;;;;12.27;26.53;99499.81;4463831;32;34631;-67
2022/01/08 11:33:04;;;;;;;16.62;13.15;;;;;;;12.38;26.21;99495.34;4463828;32;34115;-68
2022/01/08 11:35:37;;;;;;;15.57;12.82;;;;;;;12.44;26.14;99490.31;4464229;32;34358;-66
2022/01/08 11:38:09;;;;;;;16.73;11.40;;;;;;;12.56;25.78;99485.72;4464812;32;34420;-67
2022/01/08 11:40:41;;;;;;;16.62;12.20;;;;;;;12.22;26.71;99493.13;4464380;32;33651;-67
2022/01/08 11:43:16;;;;;;;17.17;11.00;;;;;;;11.91;27.47;99494.88;4466157;32;34967;-67
2022/01/08 11:45:53;;;;;;;15.20;11.32;;;;;;;12.54;26.29;99485.00;4467144;32;33436;-67
2022/01/08 11:48:42;;;;;;;18.75;12.45;;;;;;;12.45;26.32;99485.78;4465232;32;33482;-67
2022/01/08 11:51:22;;;;;;;17.58;12.45;;;;;;;12.29;26.66;99497.00;4476023;32;33597;-69
2022/01/08 11:53:59;;;;;;;15.82;11.15;;;;;;;12.65;26.23;99484.91;4465501;32;33870;-67
2022/01/08 11:56:33;;;;;;;17.40;10.90;;;;;;;12.49;26.31;99489.94;4462294;32;33491;-67
2022/01/08 11:59:09;;;;;;;18.12;11.73;;;;;;;12.31;26.11;99487.81;4467333;32;33153;-67
2022/01/08 12:01:39;;;;;;;18.58;11.57;;;;;;;12.49;25.73;99474.66;4461448;32;34699;-68